sensor_id;sensor_type;location;lat;lon;timestamp;temperature;humidity
40600;DHT22;26309;50.924;4.754;2023-03-03T00:00:00;1.10;99.90
40600;DHT22;26309;50.924;4.754;2023-03-03T00:02:28;1.00;99.90
40600;DHT22;26309;50.924;4.754;2023-03-03T00:04:55;1.10;99.90
40600;DHT22;26309;50.924;4.754;2023-03-03T00:07:21;1.00;99.90
40600;DHT22;26309;50.924;4.754;2023-03-03T00:09:48;1.00;99.90
40600;DHT22;26309;50.924;4.754;2023-03-03T00:12:27;0.90;99.90
40600;DHT22;26309;50.924;4.754;2023-03-03T00:14:54;0.80;99.90
40600;DHT22;26309;50.924;4.754;2023-03-03T00:17:23;0.70;99.90
40600;DHT22;26309;50.924;4.754;2023-03-03T00:19:50;0.80;99.90
40600;DHT22;26309;50.924;4.754;2023-03-03T00:22:29;0.70;99.90
40600;DHT22;26309;50.924;4.754;2023-03-03T00:24:59;0.80;99.90
40600;DHT22;26309;50.924;4.754;2023-03-03T00:27:34;0.80;99.90
40600;DHT22;26309;50.924;4.754;2023-03-03T00:30:00;0.80;99.90
40600;DHT22;26309;50.924;4.754;2023-03-03T00:32:29;0.80;99.90
40600;DHT22;26309;50.924;4.754;2023-03-03T00:35:17;0.90;99.90
40600;DHT22;26309;50.924;4.754;2023-03-03T00:37:45;0.80;99.90
40600;DHT22;26309;50.924;4.754;2023-03-03T00:40:22;0.70;99.90
40600;DHT22;26309;50.924;4.754;2023-03-03T00:42:53;0.70;99.90
40600;DHT22;26309;50.924;4.754;2023-03-03T00:47:53;0.70;99.90
40600;DHT22;26309;50.924;4.754;2023-03-03T00:50:24;0.70;99.90
40600;DHT22;26309;50.924;4.754;2023-03-03T00:53:10;0.90;99.90
40600;DHT22;26309;50.924;4.754;2023-03-03T00:55:36;0.90;99.90
40600;DHT22;26309;50.924;4.754;2023-03-03T00:58:03;0.70;99.90
40600;DHT22;26309;50.924;4.754;2023-03-03T01:00:33;0.70;99.90
40600;DHT22;26309;50.924;4.754;2023-03-03T01:03:02;0.80;99.90
40600;DHT22;26309;50.924;4.754;2023-03-03T01:05:30;0.70;99.90
40600;DHT22;26309;50.924;4.754;2023-03-03T01:07:56;0.50;99.90
40600;DHT22;26309;50.924;4.754;2023-03-03T01:10:23;0.50;99.90
40600;DHT22;26309;50.924;4.754;2023-03-03T01:12:49;0.60;99.90
40600;DHT22;26309;50.924;4.754;2023-03-03T01:15:16;0.50;99.90
40600;DHT22;26309;50.924;4.754;2023-03-03T01:17:42;0.50;99.90
40600;DHT22;26309;50.924;4.754;2023-03-03T01:20:12;0.30;99.90
40600;DHT22;26309;50.924;4.754;2023-03-03T01:22:38;0.30;99.90
40600;DHT22;26309;50.924;4.754;2023-03-03T01:25:04;0.20;99.90
40600;DHT22;26309;50.924;4.754;2023-03-03T01:27:32;0.20;99.90
40600;DHT22;26309;50.924;4.754;2023-03-03T01:29:58;0.30;99.90
40600;DHT22;26309;50.924;4.754;2023-03-03T01:32:26;0.20;99.90
40600;DHT22;26309;50.924;4.754;2023-03-03T01:34:53;0.10;99.90
40600;DHT22;26309;50.924;4.754;2023-03-03T01:37:20;0.10;99.90
40600;DHT22;26309;50.924;4.754;2023-03-03T01:39:53;0.00;99.90
40600;DHT22;26309;50.924;4.754;2023-03-03T01:42:19;0.20;99.90
40600;DHT22;26309;50.924;4.754;2023-03-03T01:44:46;0.20;99.90
40600;DHT22;26309;50.924;4.754;2023-03-03T01:47:21;0.10;99.90
40600;DHT22;26309;50.924;4.754;2023-03-03T01:49:58;0.10;99.90
40600;DHT22;26309;50.924;4.754;2023-03-03T01:52:46;0.00;99.90
40600;DHT22;26309;50.924;4.754;2023-03-03T01:55:17;0.00;99.90
40600;DHT22;26309;50.924;4.754;2023-03-03T01:57:49;0.00;99.90
40600;DHT22;26309;50.924;4.754;2023-03-03T02:00:18;0.10;99.90
40600;DHT22;26309;50.924;4.754;2023-03-03T02:02:44;0.10;99.90
40600;DHT22;26309;50.924;4.754;2023-03-03T02:05:12;0.00;99.90
40600;DHT22;26309;50.924;4.754;2023-03-03T02:07:39;-0.10;99.90
40600;DHT22;26309;50.924;4.754;2023-03-03T02:10:11;0.00;99.90
40600;DHT22;26309;50.924;4.754;2023-03-03T02:12:43;-0.10;99.90
40600;DHT22;26309;50.924;4.754;2023-03-03T02:15:17;-0.10;99.90
40600;DHT22;26309;50.924;4.754;2023-03-03T02:17:44;-0.30;99.90
40600;DHT22;26309;50.924;4.754;2023-03-03T02:28:51;-0.30;99.90
40600;DHT22;26309;50.924;4.754;2023-03-03T02:31:20;-0.30;99.90
40600;DHT22;26309;50.924;4.754;2023-03-03T02:33:48;-0.30;99.90
40600;DHT22;26309;50.924;4.754;2023-03-03T02:36:20;-0.30;99.90
40600;DHT22;26309;50.924;4.754;2023-03-03T02:44:07;-0.20;99.90
40600;DHT22;26309;50.924;4.754;2023-03-03T02:46:36;-0.40;99.90
40600;DHT22;26309;50.924;4.754;2023-03-03T02:49:04;-0.40;99.90
40600;DHT22;26309;50.924;4.754;2023-03-03T02:51:31;-0.40;99.90
40600;DHT22;26309;50.924;4.754;2023-03-03T02:54:00;-0.40;99.90
40600;DHT22;26309;50.924;4.754;2023-03-03T02:56:26;-0.40;99.90
40600;DHT22;26309;50.924;4.754;2023-03-03T02:58:52;-0.50;99.90
40600;DHT22;26309;50.924;4.754;2023-03-03T03:01:18;-0.50;99.90
40600;DHT22;26309;50.924;4.754;2023-03-03T03:03:45;-0.40;99.90
40600;DHT22;26309;50.924;4.754;2023-03-03T03:06:11;-0.40;99.90
40600;DHT22;26309;50.924;4.754;2023-03-03T03:08:36;-0.40;99.90
40600;DHT22;26309;50.924;4.754;2023-03-03T03:11:03;-0.30;99.90
40600;DHT22;26309;50.924;4.754;2023-03-03T03:13:31;-0.30;99.90
40600;DHT22;26309;50.924;4.754;2023-03-03T03:15:57;-0.20;99.90
40600;DHT22;26309;50.924;4.754;2023-03-03T03:18:24;-0.10;99.90
40600;DHT22;26309;50.924;4.754;2023-03-03T03:20:50;-0.10;99.90
40600;DHT22;26309;50.924;4.754;2023-03-03T03:23:17;0.10;99.90
40600;DHT22;26309;50.924;4.754;2023-03-03T03:25:43;0.20;99.90
40600;DHT22;26309;50.924;4.754;2023-03-03T03:28:13;0.30;99.90
40600;DHT22;26309;50.924;4.754;2023-03-03T03:30:40;0.50;99.90
40600;DHT22;26309;50.924;4.754;2023-03-03T03:33:07;0.50;99.90
40600;DHT22;26309;50.924;4.754;2023-03-03T03:35:33;0.60;99.90
40600;DHT22;26309;50.924;4.754;2023-03-03T03:38:00;0.70;99.90
40600;DHT22;26309;50.924;4.754;2023-03-03T03:40:26;0.70;99.90
40600;DHT22;26309;50.924;4.754;2023-03-03T03:42:52;1.00;99.90
40600;DHT22;26309;50.924;4.754;2023-03-03T03:45:19;1.10;99.90
40600;DHT22;26309;50.924;4.754;2023-03-03T03:47:45;1.20;99.90
40600;DHT22;26309;50.924;4.754;2023-03-03T03:50:11;1.40;99.90
40600;DHT22;26309;50.924;4.754;2023-03-03T03:52:37;1.50;99.90
40600;DHT22;26309;50.924;4.754;2023-03-03T03:55:03;1.50;99.90
40600;DHT22;26309;50.924;4.754;2023-03-03T03:57:31;1.40;99.90
40600;DHT22;26309;50.924;4.754;2023-03-03T03:59:57;1.50;99.90
40600;DHT22;26309;50.924;4.754;2023-03-03T04:02:23;1.30;99.90
40600;DHT22;26309;50.924;4.754;2023-03-03T04:04:49;1.30;99.90
40600;DHT22;26309;50.924;4.754;2023-03-03T04:07:14;1.30;99.90
40600;DHT22;26309;50.924;4.754;2023-03-03T04:09:40;1.40;99.90
40600;DHT22;26309;50.924;4.754;2023-03-03T04:12:06;1.60;99.90
40600;DHT22;26309;50.924;4.754;2023-03-03T04:14:32;1.70;99.90
40600;DHT22;26309;50.924;4.754;2023-03-03T04:16:58;1.70;99.90
40600;DHT22;26309;50.924;4.754;2023-03-03T04:19:24;1.80;99.90
40600;DHT22;26309;50.924;4.754;2023-03-03T04:21:50;1.80;99.90
40600;DHT22;26309;50.924;4.754;2023-03-03T04:24:17;1.70;99.90
40600;DHT22;26309;50.924;4.754;2023-03-03T04:26:47;1.70;99.90
40600;DHT22;26309;50.924;4.754;2023-03-03T04:29:14;1.80;99.90
40600;DHT22;26309;50.924;4.754;2023-03-03T04:31:39;1.70;99.90
40600;DHT22;26309;50.924;4.754;2023-03-03T04:34:05;1.70;99.90
40600;DHT22;26309;50.924;4.754;2023-03-03T04:36:31;1.50;99.90
40600;DHT22;26309;50.924;4.754;2023-03-03T04:39:00;1.60;99.90
40600;DHT22;26309;50.924;4.754;2023-03-03T04:41:26;1.60;99.90
40600;DHT22;26309;50.924;4.754;2023-03-03T04:43:52;1.70;99.90
40600;DHT22;26309;50.924;4.754;2023-03-03T04:46:18;1.40;99.90
40600;DHT22;26309;50.924;4.754;2023-03-03T04:48:44;1.30;99.90
40600;DHT22;26309;50.924;4.754;2023-03-03T04:51:10;1.20;99.90
40600;DHT22;26309;50.924;4.754;2023-03-03T04:53:36;1.20;99.90
40600;DHT22;26309;50.924;4.754;2023-03-03T04:56:03;1.30;99.90
40600;DHT22;26309;50.924;4.754;2023-03-03T04:58:30;1.40;99.90
40600;DHT22;26309;50.924;4.754;2023-03-03T05:00:56;1.40;99.90
40600;DHT22;26309;50.924;4.754;2023-03-03T05:03:22;1.50;99.90
40600;DHT22;26309;50.924;4.754;2023-03-03T05:05:48;1.50;99.90
40600;DHT22;26309;50.924;4.754;2023-03-03T05:08:14;1.60;99.90
40600;DHT22;26309;50.924;4.754;2023-03-03T05:10:40;1.60;99.90
40600;DHT22;26309;50.924;4.754;2023-03-03T05:13:06;1.70;99.90
40600;DHT22;26309;50.924;4.754;2023-03-03T05:15:33;1.90;99.90
40600;DHT22;26309;50.924;4.754;2023-03-03T05:17:59;1.90;99.90
40600;DHT22;26309;50.924;4.754;2023-03-03T05:20:25;1.90;99.90
40600;DHT22;26309;50.924;4.754;2023-03-03T05:22:51;2.00;99.90
40600;DHT22;26309;50.924;4.754;2023-03-03T05:25:18;2.00;99.90
40600;DHT22;26309;50.924;4.754;2023-03-03T05:27:44;1.90;99.90
40600;DHT22;26309;50.924;4.754;2023-03-03T05:30:11;1.50;99.90
40600;DHT22;26309;50.924;4.754;2023-03-03T05:32:37;1.50;99.90
40600;DHT22;26309;50.924;4.754;2023-03-03T05:35:04;1.60;99.90
40600;DHT22;26309;50.924;4.754;2023-03-03T05:37:30;1.40;99.90
40600;DHT22;26309;50.924;4.754;2023-03-03T05:39:56;1.50;99.90
40600;DHT22;26309;50.924;4.754;2023-03-03T05:42:22;1.20;99.90
40600;DHT22;26309;50.924;4.754;2023-03-03T05:44:47;1.30;99.90
40600;DHT22;26309;50.924;4.754;2023-03-03T05:47:13;1.40;99.90
40600;DHT22;26309;50.924;4.754;2023-03-03T05:49:40;1.40;99.90
40600;DHT22;26309;50.924;4.754;2023-03-03T05:52:06;1.60;99.90
40600;DHT22;26309;50.924;4.754;2023-03-03T05:54:34;1.80;99.90
40600;DHT22;26309;50.924;4.754;2023-03-03T05:57:01;1.80;99.90
40600;DHT22;26309;50.924;4.754;2023-03-03T05:59:27;1.70;99.90
40600;DHT22;26309;50.924;4.754;2023-03-03T06:01:53;1.40;99.90
40600;DHT22;26309;50.924;4.754;2023-03-03T06:04:19;1.30;99.90
40600;DHT22;26309;50.924;4.754;2023-03-03T06:06:45;1.00;99.90
40600;DHT22;26309;50.924;4.754;2023-03-03T06:09:11;1.00;99.90
40600;DHT22;26309;50.924;4.754;2023-03-03T06:11:37;1.00;99.90
40600;DHT22;26309;50.924;4.754;2023-03-03T06:14:02;1.10;99.90
40600;DHT22;26309;50.924;4.754;2023-03-03T06:16:28;1.20;99.90
40600;DHT22;26309;50.924;4.754;2023-03-03T06:18:54;1.40;99.90
40600;DHT22;26309;50.924;4.754;2023-03-03T06:21:20;1.30;99.90
40600;DHT22;26309;50.924;4.754;2023-03-03T06:23:46;1.50;99.90
40600;DHT22;26309;50.924;4.754;2023-03-03T06:26:12;1.60;99.90
40600;DHT22;26309;50.924;4.754;2023-03-03T06:28:38;1.80;99.90
40600;DHT22;26309;50.924;4.754;2023-03-03T06:31:04;1.90;99.90
40600;DHT22;26309;50.924;4.754;2023-03-03T06:33:30;1.90;99.90
40600;DHT22;26309;50.924;4.754;2023-03-03T06:35:56;1.80;99.90
40600;DHT22;26309;50.924;4.754;2023-03-03T06:38:23;1.90;99.90
40600;DHT22;26309;50.924;4.754;2023-03-03T06:40:49;1.80;99.90
40600;DHT22;26309;50.924;4.754;2023-03-03T06:43:15;1.80;99.90
40600;DHT22;26309;50.924;4.754;2023-03-03T06:45:41;1.60;99.90
40600;DHT22;26309;50.924;4.754;2023-03-03T06:48:08;1.50;99.90
40600;DHT22;26309;50.924;4.754;2023-03-03T06:50:33;1.20;99.90
40600;DHT22;26309;50.924;4.754;2023-03-03T06:53:19;1.10;99.90
40600;DHT22;26309;50.924;4.754;2023-03-03T06:55:46;1.10;99.90
40600;DHT22;26309;50.924;4.754;2023-03-03T06:58:20;1.20;99.90
40600;DHT22;26309;50.924;4.754;2023-03-03T07:00:59;1.50;99.90
40600;DHT22;26309;50.924;4.754;2023-03-03T07:03:31;1.30;99.90
40600;DHT22;26309;50.924;4.754;2023-03-03T07:05:58;1.40;99.90
40600;DHT22;26309;50.924;4.754;2023-03-03T07:08:25;1.50;99.90
40600;DHT22;26309;50.924;4.754;2023-03-03T07:10:52;1.60;99.90
40600;DHT22;26309;50.924;4.754;2023-03-03T07:15:44;1.70;99.90
40600;DHT22;26309;50.924;4.754;2023-03-03T07:21:21;1.90;99.90
40600;DHT22;26309;50.924;4.754;2023-03-03T07:23:51;1.80;99.90
40600;DHT22;26309;50.924;4.754;2023-03-03T07:26:36;1.80;99.90
40600;DHT22;26309;50.924;4.754;2023-03-03T07:31:47;2.00;99.90
40600;DHT22;26309;50.924;4.754;2023-03-03T07:34:21;2.10;99.90
40600;DHT22;26309;50.924;4.754;2023-03-03T07:36:57;2.20;99.90
40600;DHT22;26309;50.924;4.754;2023-03-03T07:39:33;2.20;99.90
40600;DHT22;26309;50.924;4.754;2023-03-03T07:42:13;2.10;99.90
40600;DHT22;26309;50.924;4.754;2023-03-03T07:44:40;1.80;99.90
40600;DHT22;26309;50.924;4.754;2023-03-03T07:47:30;1.60;99.90
40600;DHT22;26309;50.924;4.754;2023-03-03T07:50:07;1.60;99.90
40600;DHT22;26309;50.924;4.754;2023-03-03T07:52:45;1.50;99.90
40600;DHT22;26309;50.924;4.754;2023-03-03T07:55:35;1.40;99.90
40600;DHT22;26309;50.924;4.754;2023-03-03T08:03:19;1.70;99.90
40600;DHT22;26309;50.924;4.754;2023-03-03T08:05:49;1.70;99.90
40600;DHT22;26309;50.924;4.754;2023-03-03T08:08:28;1.60;99.90
40600;DHT22;26309;50.924;4.754;2023-03-03T08:10:57;1.70;99.90
40600;DHT22;26309;50.924;4.754;2023-03-03T08:16:01;1.50;99.90
40600;DHT22;26309;50.924;4.754;2023-03-03T08:18:34;1.50;99.90
40600;DHT22;26309;50.924;4.754;2023-03-03T08:21:04;1.40;99.90
40600;DHT22;26309;50.924;4.754;2023-03-03T08:23:34;1.40;99.90
40600;DHT22;26309;50.924;4.754;2023-03-03T08:25:59;1.60;99.90
40600;DHT22;26309;50.924;4.754;2023-03-03T08:28:25;1.70;99.90
40600;DHT22;26309;50.924;4.754;2023-03-03T08:30:51;1.90;99.90
40600;DHT22;26309;50.924;4.754;2023-03-03T08:33:20;2.00;99.90
40600;DHT22;26309;50.924;4.754;2023-03-03T08:35:47;2.00;99.90
40600;DHT22;26309;50.924;4.754;2023-03-03T08:38:15;1.60;99.90
40600;DHT22;26309;50.924;4.754;2023-03-03T08:40:41;1.60;99.90
40600;DHT22;26309;50.924;4.754;2023-03-03T08:43:08;1.70;99.90
40600;DHT22;26309;50.924;4.754;2023-03-03T08:45:34;1.70;99.90
40600;DHT22;26309;50.924;4.754;2023-03-03T08:48:01;1.70;99.90
40600;DHT22;26309;50.924;4.754;2023-03-03T08:50:28;1.80;99.90
40600;DHT22;26309;50.924;4.754;2023-03-03T08:52:54;2.00;99.90
40600;DHT22;26309;50.924;4.754;2023-03-03T08:55:21;2.20;99.90
40600;DHT22;26309;50.924;4.754;2023-03-03T08:57:47;2.20;99.90
40600;DHT22;26309;50.924;4.754;2023-03-03T09:00:14;2.30;99.90
40600;DHT22;26309;50.924;4.754;2023-03-03T09:02:41;2.40;99.90
40600;DHT22;26309;50.924;4.754;2023-03-03T09:05:08;2.40;99.90
40600;DHT22;26309;50.924;4.754;2023-03-03T09:07:34;2.50;99.90
40600;DHT22;26309;50.924;4.754;2023-03-03T09:10:00;2.50;99.90
40600;DHT22;26309;50.924;4.754;2023-03-03T09:12:34;2.50;99.90
40600;DHT22;26309;50.924;4.754;2023-03-03T09:15:34;2.50;99.90
40600;DHT22;26309;50.924;4.754;2023-03-03T09:20:43;2.90;99.90
40600;DHT22;26309;50.924;4.754;2023-03-03T09:23:35;3.00;99.90
40600;DHT22;26309;50.924;4.754;2023-03-03T09:26:26;2.70;99.90
40600;DHT22;26309;50.924;4.754;2023-03-03T09:29:18;2.70;99.90
40600;DHT22;26309;50.924;4.754;2023-03-03T09:31:57;2.60;99.90
40600;DHT22;26309;50.924;4.754;2023-03-03T09:37:17;2.40;99.90
40600;DHT22;26309;50.924;4.754;2023-03-03T09:39:50;2.50;99.90
40600;DHT22;26309;50.924;4.754;2023-03-03T09:48:18;2.70;99.90
40600;DHT22;26309;50.924;4.754;2023-03-03T09:51:29;2.70;99.90
40600;DHT22;26309;50.924;4.754;2023-03-03T09:54:19;2.90;99.90
40600;DHT22;26309;50.924;4.754;2023-03-03T09:57:08;2.90;99.90
40600;DHT22;26309;50.924;4.754;2023-03-03T09:59:47;2.90;99.90
40600;DHT22;26309;50.924;4.754;2023-03-03T10:05:20;3.00;99.90
40600;DHT22;26309;50.924;4.754;2023-03-03T10:10:58;3.20;99.90
40600;DHT22;26309;50.924;4.754;2023-03-03T10:18:45;3.50;99.90
40600;DHT22;26309;50.924;4.754;2023-03-03T10:24:27;3.40;99.90
40600;DHT22;26309;50.924;4.754;2023-03-03T10:30:13;3.40;99.90
40600;DHT22;26309;50.924;4.754;2023-03-03T10:32:46;3.50;99.90
40600;DHT22;26309;50.924;4.754;2023-03-03T10:41:10;3.50;99.90
40600;DHT22;26309;50.924;4.754;2023-03-03T10:51:43;3.60;99.90
40600;DHT22;26309;50.924;4.754;2023-03-03T10:57:35;3.80;99.90
40600;DHT22;26309;50.924;4.754;2023-03-03T11:13:59;4.00;99.90
40600;DHT22;26309;50.924;4.754;2023-03-03T11:25:31;4.40;99.90
40600;DHT22;26309;50.924;4.754;2023-03-03T11:36:49;4.80;99.90
40600;DHT22;26309;50.924;4.754;2023-03-03T11:39:22;4.40;99.90
40600;DHT22;26309;50.924;4.754;2023-03-03T11:45:18;4.70;99.90
40600;DHT22;26309;50.924;4.754;2023-03-03T11:48:00;4.80;99.90
40600;DHT22;26309;50.924;4.754;2023-03-03T11:50:35;5.10;99.90
40600;DHT22;26309;50.924;4.754;2023-03-03T11:53:21;5.30;99.90
40600;DHT22;26309;50.924;4.754;2023-03-03T12:04:03;5.60;99.90
40600;DHT22;26309;50.924;4.754;2023-03-03T12:09:34;5.50;99.90
40600;DHT22;26309;50.924;4.754;2023-03-03T12:12:06;6.00;99.90
40600;DHT22;26309;50.924;4.754;2023-03-03T12:15:21;6.30;99.90
40600;DHT22;26309;50.924;4.754;2023-03-03T12:18:07;6.10;99.90
40600;DHT22;26309;50.924;4.754;2023-03-03T12:21:02;5.70;99.90
40600;DHT22;26309;50.924;4.754;2023-03-03T12:26:53;5.70;99.90
40600;DHT22;26309;50.924;4.754;2023-03-03T12:41:20;6.60;99.90
40600;DHT22;26309;50.924;4.754;2023-03-03T12:48:57;6.30;99.90
40600;DHT22;26309;50.924;4.754;2023-03-03T12:51:34;6.20;99.90
40600;DHT22;26309;50.924;4.754;2023-03-03T12:59:50;6.20;99.90
40600;DHT22;26309;50.924;4.754;2023-03-03T13:05:15;6.40;99.90
40600;DHT22;26309;50.924;4.754;2023-03-03T13:13:49;6.70;99.90
40600;DHT22;26309;50.924;4.754;2023-03-03T13:16:27;6.80;99.90
40600;DHT22;26309;50.924;4.754;2023-03-03T13:18:55;6.90;99.90
40600;DHT22;26309;50.924;4.754;2023-03-03T13:21:39;7.00;99.90
40600;DHT22;26309;50.924;4.754;2023-03-03T13:27:07;6.80;99.90
40600;DHT22;26309;50.924;4.754;2023-03-03T13:29:42;7.00;99.90
40600;DHT22;26309;50.924;4.754;2023-03-03T13:34:54;7.10;99.90
40600;DHT22;26309;50.924;4.754;2023-03-03T13:40:02;7.30;99.90
40600;DHT22;26309;50.924;4.754;2023-03-03T13:42:40;6.70;99.90
40600;DHT22;26309;50.924;4.754;2023-03-03T13:45:30;6.60;99.90
40600;DHT22;26309;50.924;4.754;2023-03-03T13:50:50;6.60;99.90
40600;DHT22;26309;50.924;4.754;2023-03-03T13:59:20;6.60;99.90
40600;DHT22;26309;50.924;4.754;2023-03-03T14:07:33;7.00;99.90
40600;DHT22;26309;50.924;4.754;2023-03-03T14:12:39;7.00;99.90
40600;DHT22;26309;50.924;4.754;2023-03-03T14:20:29;7.20;99.90
40600;DHT22;26309;50.924;4.754;2023-03-03T14:23:16;7.00;99.90
40600;DHT22;26309;50.924;4.754;2023-03-03T14:26:10;7.10;99.90
40600;DHT22;26309;50.924;4.754;2023-03-03T14:28:45;7.00;99.90
40600;DHT22;26309;50.924;4.754;2023-03-03T14:31:37;7.10;99.90
40600;DHT22;26309;50.924;4.754;2023-03-03T14:36:50;7.30;99.90
40600;DHT22;26309;50.924;4.754;2023-03-03T14:39:37;7.30;99.90
40600;DHT22;26309;50.924;4.754;2023-03-03T14:42:29;7.40;99.90
40600;DHT22;26309;50.924;4.754;2023-03-03T14:44:56;7.20;99.90
40600;DHT22;26309;50.924;4.754;2023-03-03T14:47:28;7.40;99.90
40600;DHT22;26309;50.924;4.754;2023-03-03T14:49:56;7.40;99.90
40600;DHT22;26309;50.924;4.754;2023-03-03T14:52:29;7.20;99.90
40600;DHT22;26309;50.924;4.754;2023-03-03T14:54:59;6.90;99.90
40600;DHT22;26309;50.924;4.754;2023-03-03T15:05:20;8.50;99.90
40600;DHT22;26309;50.924;4.754;2023-03-03T15:10:34;8.60;99.90
40600;DHT22;26309;50.924;4.754;2023-03-03T15:15:59;8.40;99.90
40600;DHT22;26309;50.924;4.754;2023-03-03T15:18:30;8.30;99.90
40600;DHT22;26309;50.924;4.754;2023-03-03T15:21:21;8.30;99.90
40600;DHT22;26309;50.924;4.754;2023-03-03T15:24:09;8.40;99.90
40600;DHT22;26309;50.924;4.754;2023-03-03T15:27:20;8.20;99.90
40600;DHT22;26309;50.924;4.754;2023-03-03T15:30:50;8.30;99.90
40600;DHT22;26309;50.924;4.754;2023-03-03T15:39:44;7.90;99.90
40600;DHT22;26309;50.924;4.754;2023-03-03T15:42:14;7.90;99.90
40600;DHT22;26309;50.924;4.754;2023-03-03T15:45:15;8.00;99.90
40600;DHT22;26309;50.924;4.754;2023-03-03T15:56:27;8.20;99.90
40600;DHT22;26309;50.924;4.754;2023-03-03T15:59:14;8.10;99.90
40600;DHT22;26309;50.924;4.754;2023-03-03T16:02:00;8.10;99.90
40600;DHT22;26309;50.924;4.754;2023-03-03T16:04:33;7.90;99.90
40600;DHT22;26309;50.924;4.754;2023-03-03T16:10:02;7.50;99.90
40600;DHT22;26309;50.924;4.754;2023-03-03T16:15:30;7.40;99.90
40600;DHT22;26309;50.924;4.754;2023-03-03T16:21:17;7.40;99.90
40600;DHT22;26309;50.924;4.754;2023-03-03T16:23:51;7.40;99.90
40600;DHT22;26309;50.924;4.754;2023-03-03T16:26:53;7.50;99.90
40600;DHT22;26309;50.924;4.754;2023-03-03T16:29:41;7.30;99.90
40600;DHT22;26309;50.924;4.754;2023-03-03T16:32:22;7.30;99.90
40600;DHT22;26309;50.924;4.754;2023-03-03T16:35:05;7.20;99.90
40600;DHT22;26309;50.924;4.754;2023-03-03T16:37:52;7.30;99.90
40600;DHT22;26309;50.924;4.754;2023-03-03T16:45:45;7.30;99.90
40600;DHT22;26309;50.924;4.754;2023-03-03T16:56:31;7.40;99.90
40600;DHT22;26309;50.924;4.754;2023-03-03T17:09:49;7.60;99.90
40600;DHT22;26309;50.924;4.754;2023-03-03T17:12:57;7.40;99.90
40600;DHT22;26309;50.924;4.754;2023-03-03T17:24:40;7.00;99.90
40600;DHT22;26309;50.924;4.754;2023-03-03T17:32:32;6.80;99.90
40600;DHT22;26309;50.924;4.754;2023-03-03T17:38:22;6.90;99.90
40600;DHT22;26309;50.924;4.754;2023-03-03T17:41:10;7.00;99.90
40600;DHT22;26309;50.924;4.754;2023-03-03T17:46:44;6.80;99.90
40600;DHT22;26309;50.924;4.754;2023-03-03T17:52:34;6.70;99.90
40600;DHT22;26309;50.924;4.754;2023-03-03T17:58:51;6.50;99.90
40600;DHT22;26309;50.924;4.754;2023-03-03T18:01:29;6.60;99.90
40600;DHT22;26309;50.924;4.754;2023-03-03T18:12:36;6.70;99.90
40600;DHT22;26309;50.924;4.754;2023-03-03T18:22:53;6.90;99.90
40600;DHT22;26309;50.924;4.754;2023-03-03T18:25:24;6.80;99.90
40600;DHT22;26309;50.924;4.754;2023-03-03T18:30:49;6.60;99.90
40600;DHT22;26309;50.924;4.754;2023-03-03T18:38:51;6.80;99.90
40600;DHT22;26309;50.924;4.754;2023-03-03T18:41:25;6.80;99.90
40600;DHT22;26309;50.924;4.754;2023-03-03T18:43:57;6.80;99.90
40600;DHT22;26309;50.924;4.754;2023-03-03T19:08:03;6.40;99.90
40600;DHT22;26309;50.924;4.754;2023-03-03T19:10:51;6.40;99.90
40600;DHT22;26309;50.924;4.754;2023-03-03T19:16:31;6.50;99.90
40600;DHT22;26309;50.924;4.754;2023-03-03T19:19:09;6.60;99.90
40600;DHT22;26309;50.924;4.754;2023-03-03T19:21:36;6.50;99.90
40600;DHT22;26309;50.924;4.754;2023-03-03T19:24:30;6.40;99.90
40600;DHT22;26309;50.924;4.754;2023-03-03T19:32:50;6.30;99.90
40600;DHT22;26309;50.924;4.754;2023-03-03T19:47:05;6.30;99.90
40600;DHT22;26309;50.924;4.754;2023-03-03T19:50:02;6.10;99.90
40600;DHT22;26309;50.924;4.754;2023-03-03T19:52:42;6.10;99.90
40600;DHT22;26309;50.924;4.754;2023-03-03T19:55:38;6.20;99.90
40600;DHT22;26309;50.924;4.754;2023-03-03T20:01:03;6.10;99.90
40600;DHT22;26309;50.924;4.754;2023-03-03T20:09:32;6.00;99.90
40600;DHT22;26309;50.924;4.754;2023-03-03T20:12:05;6.00;99.90
40600;DHT22;26309;50.924;4.754;2023-03-03T20:17:31;6.10;99.90
40600;DHT22;26309;50.924;4.754;2023-03-03T20:23:30;6.20;99.90
40600;DHT22;26309;50.924;4.754;2023-03-03T20:29:39;6.50;99.90
40600;DHT22;26309;50.924;4.754;2023-03-03T20:41:54;6.20;99.90
40600;DHT22;26309;50.924;4.754;2023-03-03T20:44:00;6.40;99.90
40600;DHT22;26309;50.924;4.754;2023-03-03T20:46:44;6.50;99.90
40600;DHT22;26309;50.924;4.754;2023-03-03T20:52:18;6.70;99.90
40600;DHT22;26309;50.924;4.754;2023-03-03T20:54:55;6.70;99.90
40600;DHT22;26309;50.924;4.754;2023-03-03T20:57:52;6.70;99.90
40600;DHT22;26309;50.924;4.754;2023-03-03T21:00:48;6.70;99.90
40600;DHT22;26309;50.924;4.754;2023-03-03T21:03:36;7.10;99.90
40600;DHT22;26309;50.924;4.754;2023-03-03T21:06:14;7.00;99.90
40600;DHT22;26309;50.924;4.754;2023-03-03T21:11:11;6.70;99.90
40600;DHT22;26309;50.924;4.754;2023-03-03T21:13:39;6.80;99.90
40600;DHT22;26309;50.924;4.754;2023-03-03T21:18:58;7.30;99.90
40600;DHT22;26309;50.924;4.754;2023-03-03T21:21:26;7.00;99.90
40600;DHT22;26309;50.924;4.754;2023-03-03T21:23:52;7.10;99.90
40600;DHT22;26309;50.924;4.754;2023-03-03T21:29:33;7.00;99.90
40600;DHT22;26309;50.924;4.754;2023-03-03T21:32:06;6.90;99.90
40600;DHT22;26309;50.924;4.754;2023-03-03T21:34:41;7.00;99.90
40600;DHT22;26309;50.924;4.754;2023-03-03T21:37:12;7.00;99.90
40600;DHT22;26309;50.924;4.754;2023-03-03T21:39:44;7.10;99.90
40600;DHT22;26309;50.924;4.754;2023-03-03T21:42:12;7.10;99.90
40600;DHT22;26309;50.924;4.754;2023-03-03T21:44:49;7.10;99.90
40600;DHT22;26309;50.924;4.754;2023-03-03T21:47:18;7.00;99.90
40600;DHT22;26309;50.924;4.754;2023-03-03T21:49:46;7.10;99.90
40600;DHT22;26309;50.924;4.754;2023-03-03T21:52:14;7.10;99.90
40600;DHT22;26309;50.924;4.754;2023-03-03T21:54:42;7.00;99.90
40600;DHT22;26309;50.924;4.754;2023-03-03T21:57:08;6.90;99.90
40600;DHT22;26309;50.924;4.754;2023-03-03T21:59:34;7.10;99.90
40600;DHT22;26309;50.924;4.754;2023-03-03T22:02:01;7.00;99.90
40600;DHT22;26309;50.924;4.754;2023-03-03T22:04:27;7.20;99.90
40600;DHT22;26309;50.924;4.754;2023-03-03T22:06:54;7.20;99.90
40600;DHT22;26309;50.924;4.754;2023-03-03T22:09:20;6.90;99.90
40600;DHT22;26309;50.924;4.754;2023-03-03T22:11:46;6.90;99.90
40600;DHT22;26309;50.924;4.754;2023-03-03T22:14:12;6.60;99.90
40600;DHT22;26309;50.924;4.754;2023-03-03T22:16:38;6.80;99.90
40600;DHT22;26309;50.924;4.754;2023-03-03T22:19:05;6.80;99.90
40600;DHT22;26309;50.924;4.754;2023-03-03T22:21:34;6.70;99.90
40600;DHT22;26309;50.924;4.754;2023-03-03T22:24:01;6.80;99.90
40600;DHT22;26309;50.924;4.754;2023-03-03T22:26:26;6.70;99.90
40600;DHT22;26309;50.924;4.754;2023-03-03T22:28:52;6.60;99.90
40600;DHT22;26309;50.924;4.754;2023-03-03T22:31:18;6.60;99.90
40600;DHT22;26309;50.924;4.754;2023-03-03T22:33:45;6.70;99.90
40600;DHT22;26309;50.924;4.754;2023-03-03T22:36:11;6.90;99.90
40600;DHT22;26309;50.924;4.754;2023-03-03T22:38:37;6.90;99.90
40600;DHT22;26309;50.924;4.754;2023-03-03T22:41:03;6.80;99.90
40600;DHT22;26309;50.924;4.754;2023-03-03T22:43:31;6.70;99.90